createdAt,value
2017-11-08T00:00:05.039Z,36.27
2017-11-08T00:02:34.732Z,37.07
2017-11-08T00:05:04.193Z,38.97
2017-11-08T00:07:33.425Z,37.57
2017-11-08T00:10:02.832Z,38.33
2017-11-08T00:12:33.183Z,40.03
2017-11-08T00:15:02.553Z,38.40
2017-11-08T00:17:32.154Z,38.40
2017-11-08T00:20:02.425Z,38.50
2017-11-08T00:22:31.815Z,35.77
2017-11-08T00:25:01.009Z,39.80
2017-11-08T00:27:30.402Z,35.40
2017-11-08T00:29:59.826Z,39.33
2017-11-08T00:32:29.068Z,38.90
2017-11-08T00:34:58.916Z,38.27
2017-11-08T00:37:28.296Z,37.73
2017-11-08T00:39:57.702Z,39.33
2017-11-08T00:42:27.567Z,38.07
2017-11-08T00:44:57.082Z,38.87
2017-11-08T00:47:26.738Z,38.70
2017-11-08T00:49:56.850Z,40.57
2017-11-08T00:52:26.284Z,37.80
2017-11-08T00:54:55.701Z,36.77
2017-11-08T00:57:31.824Z,38.77
2017-11-08T01:00:01.257Z,38.37
2017-11-08T01:02:30.441Z,36.83
2017-11-08T01:05:00.153Z,35.10
2017-11-08T01:07:29.540Z,39.57
2017-11-08T01:09:58.921Z,36.87
2017-11-08T01:12:29.071Z,35.97
2017-11-08T01:14:58.530Z,36.47
2017-11-08T01:17:27.936Z,35.93
2017-11-08T01:19:58.231Z,38.03
2017-11-08T01:22:27.619Z,36.37
2017-11-08T01:24:56.871Z,36.27
2017-11-08T01:27:26.699Z,36.97
2017-11-08T01:29:56.119Z,35.67
2017-11-08T01:32:25.515Z,37.20
2017-11-08T01:34:56.028Z,35.73
2017-11-08T01:40:23.370Z,36.40
2017-11-08T01:42:52.759Z,36.17
2017-11-08T01:45:22.127Z,34.30
2017-11-08T01:47:53.264Z,35.20
2017-11-08T01:50:27.732Z,37.07
2017-11-08T01:52:57.540Z,38.50
2017-11-08T01:55:26.237Z,38.90
2017-11-08T01:57:55.693Z,36.23
2017-11-08T02:00:24.639Z,37.77
2017-11-08T02:02:54.640Z,36.60
2017-11-08T02:05:25.554Z,33.57
2017-11-08T02:07:55.039Z,34.33
2017-11-08T02:10:25.652Z,38.43
2017-11-08T02:12:55.796Z,36.23
2017-11-08T02:15:26.022Z,37.67
2017-11-08T02:17:58.301Z,37.17
2017-11-08T02:20:29.044Z,35.13
2017-11-08T02:22:57.557Z,36.10
2017-11-08T02:25:26.237Z,39.37
2017-11-08T02:27:57.351Z,38.57
2017-11-08T02:30:26.108Z,37.13
2017-11-08T02:32:56.431Z,39.83
2017-11-08T02:35:25.472Z,37.17
2017-11-08T02:37:55.773Z,38.20
2017-11-08T02:40:25.198Z,36.37
2017-11-08T02:42:56.456Z,40.40
2017-11-08T02:45:34.918Z,37.33
2017-11-08T02:48:04.374Z,36.87
2017-11-08T02:50:33.766Z,36.97
2017-11-08T02:53:03.759Z,38.13
2017-11-08T02:55:33.295Z,37.47
2017-11-08T02:58:03.486Z,37.53
2017-11-08T03:00:32.918Z,38.27
2017-11-08T03:03:03.569Z,38.03
2017-11-08T03:05:32.957Z,38.90
2017-11-08T03:08:03.558Z,38.93
2017-11-08T03:10:32.958Z,36.77
2017-11-08T03:13:04.074Z,36.30
2017-11-08T03:15:33.303Z,39.03
2017-11-08T03:18:03.458Z,38.60
2017-11-08T03:20:32.845Z,38.10
2017-11-08T03:23:02.356Z,38.67
2017-11-08T03:25:31.857Z,38.53
2017-11-08T03:28:02.383Z,39.03
2017-11-08T03:30:31.798Z,35.93
2017-11-08T03:33:00.481Z,35.20
2017-11-08T03:35:29.718Z,35.13
2017-11-08T03:37:59.149Z,35.27
2017-11-08T03:40:28.513Z,34.47
2017-11-08T03:43:00.745Z,33.67
2017-11-08T03:45:30.155Z,33.53
2017-11-08T03:48:00.759Z,35.77
2017-11-08T03:50:30.439Z,36.17
2017-11-08T03:53:00.600Z,35.50
2017-11-08T03:55:29.859Z,37.37
2017-11-08T03:57:59.317Z,36.77
2017-11-08T04:00:29.125Z,37.13
2017-11-08T04:03:01.155Z,35.63
2017-11-08T04:05:31.562Z,35.23
2017-11-08T04:08:01.716Z,37.60
2017-11-08T04:10:33.478Z,35.93
2017-11-08T04:13:04.033Z,37.10
2017-11-08T04:15:36.131Z,38.03
2017-11-08T04:18:05.342Z,36.70
2017-11-08T04:20:34.801Z,38.93
2017-11-08T04:23:04.779Z,38.13
2017-11-08T04:25:34.216Z,40.73
2017-11-08T04:28:03.466Z,39.20
2017-11-08T04:30:33.647Z,39.63
2017-11-08T04:33:03.065Z,38.77
2017-11-08T04:35:32.451Z,40.17
2017-11-08T04:38:02.313Z,40.47
2017-11-08T04:40:31.812Z,40.03
2017-11-08T04:43:00.836Z,38.80
2017-11-08T04:45:31.914Z,38.20
2017-11-08T04:48:01.541Z,38.47
2017-11-08T04:50:30.920Z,39.00
2017-11-08T04:53:00.506Z,36.67
2017-11-08T04:55:29.699Z,37.17
2017-11-08T04:58:00.102Z,37.80
2017-11-08T05:00:29.290Z,38.03
2017-11-08T05:02:58.285Z,36.87
2017-11-08T05:05:28.930Z,37.37
2017-11-08T05:07:58.306Z,38.03
2017-11-08T05:10:27.676Z,37.87
2017-11-08T05:12:58.313Z,37.43
2017-11-08T05:15:27.706Z,37.50
2017-11-08T05:17:57.085Z,39.20
2017-11-08T05:20:26.816Z,39.63
2017-11-08T05:22:56.290Z,39.10
2017-11-08T05:25:25.673Z,38.73
2017-11-08T05:27:55.475Z,39.70
2017-11-08T05:30:24.859Z,39.37
2017-11-08T05:32:55.413Z,37.17
2017-11-08T05:35:25.650Z,39.00
2017-11-08T05:37:56.208Z,37.50
2017-11-08T05:40:25.926Z,34.37
2017-11-08T05:42:57.301Z,37.93
2017-11-08T05:45:27.734Z,37.13
2017-11-08T05:47:58.480Z,35.20
2017-11-08T05:50:27.922Z,37.60
2017-11-08T05:52:58.760Z,40.40
2017-11-08T05:55:29.385Z,37.37
2017-11-08T05:58:01.452Z,41.33
2017-11-08T06:00:30.920Z,38.37
2017-11-08T06:03:00.329Z,38.17
2017-11-08T06:05:31.440Z,38.57
2017-11-08T06:08:01.581Z,37.97
2017-11-08T06:10:31.667Z,37.47
2017-11-08T06:13:01.481Z,38.10
2017-11-08T06:15:32.762Z,38.87
2017-11-08T06:18:02.563Z,40.27
2017-11-08T06:20:32.923Z,38.27
2017-11-08T06:23:03.412Z,40.30
2017-11-08T06:25:35.236Z,38.30
2017-11-08T06:28:05.535Z,39.77
2017-11-08T06:30:35.456Z,35.50
2017-11-08T06:33:04.876Z,37.97
2017-11-08T06:35:34.280Z,37.20
2017-11-08T06:38:04.066Z,36.53
2017-11-08T06:40:33.447Z,39.17
2017-11-08T06:43:05.773Z,35.80
2017-11-08T06:45:38.752Z,39.60
2017-11-08T06:48:08.431Z,39.20
2017-11-08T06:50:38.203Z,38.37
2017-11-08T06:53:07.599Z,39.20
2017-11-08T06:55:37.356Z,42.93
2017-11-08T06:58:06.734Z,40.83
2017-11-08T07:00:36.120Z,43.83
2017-11-08T07:03:06.320Z,41.03
2017-11-08T07:05:35.728Z,42.77
2017-11-08T07:08:05.118Z,41.53
2017-11-08T07:10:36.516Z,45.97
2017-11-08T07:13:06.015Z,42.87
2017-11-08T07:15:35.431Z,42.17
2017-11-08T07:18:05.379Z,43.67
2017-11-08T07:20:35.280Z,42.47
2017-11-08T07:23:06.050Z,41.17
2017-11-08T07:25:35.447Z,41.40
2017-11-08T07:28:04.855Z,44.43
2017-11-08T07:30:35.436Z,42.90
2017-11-08T07:33:05.220Z,43.10
2017-11-08T07:35:35.514Z,43.43
2017-11-08T07:38:04.739Z,43.23
2017-11-08T07:40:34.125Z,43.50
2017-11-08T07:43:04.425Z,44.70
2017-11-08T07:45:34.622Z,43.70
2017-11-08T07:48:04.421Z,46.00
2017-11-08T07:50:34.478Z,47.00
2017-11-08T07:53:05.126Z,45.47
2017-11-08T07:55:40.028Z,47.47
2017-11-08T07:58:10.648Z,45.87
2017-11-08T08:00:40.756Z,47.33
2017-11-08T08:03:10.385Z,47.53
2017-11-08T08:05:40.074Z,45.37
2017-11-08T08:08:09.464Z,44.83
2017-11-08T08:10:40.130Z,47.30
2017-11-08T08:13:10.358Z,47.03
2017-11-08T08:15:42.047Z,45.83
2017-11-08T08:18:11.489Z,45.37
2017-11-08T08:20:41.220Z,44.90
2017-11-08T08:23:11.189Z,46.80
2017-11-08T08:25:51.555Z,47.77
2017-11-08T08:28:20.931Z,44.97
2017-11-08T08:30:51.422Z,45.30
2017-11-08T08:33:20.687Z,42.93
2017-11-08T08:35:50.478Z,45.13
2017-11-08T08:38:20.256Z,46.20
2017-11-08T08:40:49.800Z,44.90
2017-11-08T08:43:19.486Z,43.43
2017-11-08T08:45:49.456Z,43.03
2017-11-08T08:48:19.187Z,42.93
2017-11-08T08:50:50.217Z,40.07
2017-11-08T08:53:19.645Z,42.60
2017-11-08T08:55:49.073Z,43.33
2017-11-08T08:58:18.716Z,42.40
2017-11-08T09:00:48.104Z,42.40
2017-11-08T09:03:22.245Z,41.40
2017-11-08T09:05:56.056Z,41.50
2017-11-08T09:08:27.598Z,40.90
2017-11-08T09:10:57.063Z,40.67
2017-11-08T09:13:26.437Z,40.87
2017-11-08T09:15:56.399Z,40.07
2017-11-08T09:18:26.814Z,42.27
2017-11-08T09:20:56.181Z,40.20
2017-11-08T09:23:25.561Z,41.17
2017-11-08T09:25:55.629Z,44.03
2017-11-08T09:28:25.886Z,41.80
2017-11-08T09:30:55.068Z,41.73
2017-11-08T09:33:25.656Z,42.67
2017-11-08T09:35:55.644Z,43.13
2017-11-08T09:38:24.693Z,42.83
2017-11-08T09:40:54.051Z,41.83
2017-11-08T09:43:23.186Z,42.23
2017-11-08T09:45:52.743Z,41.87
2017-11-08T09:48:22.730Z,40.23
2017-11-08T09:50:52.151Z,40.27
2017-11-08T09:53:21.531Z,40.03
2017-11-08T09:55:51.618Z,39.07
2017-11-08T09:58:21.000Z,38.20
2017-11-08T10:00:52.400Z,40.27
2017-11-08T10:03:22.541Z,37.90
2017-11-08T10:05:52.839Z,37.50
2017-11-08T10:08:22.223Z,40.87
2017-11-08T10:10:51.650Z,39.33
2017-11-08T10:13:27.585Z,38.73
2017-11-08T10:15:57.989Z,37.47
2017-11-08T10:18:27.788Z,40.57
2017-11-08T10:20:57.226Z,38.80
2017-11-08T10:23:26.612Z,38.67
2017-11-08T10:25:56.451Z,37.93
2017-11-08T10:28:25.843Z,37.27
2017-11-08T10:30:55.227Z,38.37
2017-11-08T10:33:24.890Z,36.60
2017-11-08T10:35:55.101Z,39.23
2017-11-08T10:38:24.486Z,36.30
2017-11-08T10:40:54.569Z,36.97
2017-11-08T10:43:23.921Z,35.27
2017-11-08T10:45:53.316Z,37.40
2017-11-08T10:48:28.987Z,36.27
2017-11-08T10:50:58.955Z,35.43
2017-11-08T10:53:29.429Z,36.87
2017-11-08T10:55:58.815Z,34.00
2017-11-08T10:58:28.011Z,36.60
2017-11-08T11:00:59.185Z,35.63
2017-11-08T11:03:27.681Z,35.73
2017-11-08T11:05:58.264Z,33.77
2017-11-08T11:08:31.841Z,36.30
2017-11-08T11:11:01.072Z,35.20
2017-11-08T11:13:31.514Z,34.53
2017-11-08T11:16:00.492Z,35.77
2017-11-08T11:18:30.097Z,33.63
2017-11-08T11:20:59.203Z,35.67
2017-11-08T11:23:27.885Z,35.63
2017-11-08T11:25:56.921Z,35.57
2017-11-08T11:28:26.612Z,36.83
2017-11-08T11:30:55.302Z,36.70
2017-11-08T11:33:24.000Z,35.77
2017-11-08T11:35:53.700Z,37.47
2017-11-08T11:38:27.817Z,36.57
2017-11-08T11:40:56.642Z,33.77
2017-11-08T11:43:26.081Z,34.03
2017-11-08T11:45:55.154Z,34.83
2017-11-08T11:48:24.973Z,36.67
2017-11-08T11:50:58.615Z,37.97
2017-11-08T11:53:28.112Z,37.97
2017-11-08T11:55:57.142Z,35.47
2017-11-08T11:58:26.272Z,36.27
2017-11-08T12:00:55.710Z,35.73
2017-11-08T12:03:24.199Z,38.33
2017-11-08T12:05:52.499Z,37.60
2017-11-08T12:08:22.312Z,35.47
2017-11-08T12:10:50.794Z,35.47
2017-11-08T12:13:20.300Z,35.67
2017-11-08T12:15:49.376Z,34.87
2017-11-08T12:18:18.069Z,35.93
2017-11-08T12:20:46.749Z,32.30
2017-11-08T12:23:16.428Z,36.43
2017-11-08T12:25:45.108Z,35.23
2017-11-08T12:28:13.886Z,37.40
2017-11-08T12:30:42.964Z,35.07
2017-11-08T12:33:11.654Z,35.20
2017-11-08T12:35:41.107Z,34.47
2017-11-08T12:38:10.144Z,34.37
2017-11-08T12:40:38.833Z,35.80
2017-11-08T12:43:07.514Z,34.67
2017-11-08T12:45:37.079Z,35.13
2017-11-08T12:48:05.914Z,36.40
2017-11-08T12:50:34.607Z,34.17
2017-11-08T12:53:03.932Z,32.83
2017-11-08T12:55:32.624Z,36.80
2017-11-08T12:58:01.734Z,35.50
2017-11-08T13:00:31.921Z,36.40
2017-11-08T13:03:00.712Z,36.13
2017-11-08T13:05:29.827Z,35.10
2017-11-08T13:07:59.813Z,35.80
2017-11-08T13:10:29.287Z,35.80
2017-11-08T13:12:57.782Z,35.17
2017-11-08T13:15:28.197Z,36.27
2017-11-08T13:17:56.887Z,34.60
2017-11-08T13:20:26.042Z,36.90
2017-11-08T13:22:55.077Z,34.93
2017-11-08T13:25:23.762Z,38.07
2017-11-08T13:27:52.802Z,36.40
2017-11-08T13:30:22.002Z,38.60
2017-11-08T13:32:51.046Z,39.00
2017-11-08T13:35:20.088Z,37.13
2017-11-08T13:37:50.267Z,38.53
2017-11-08T13:40:18.758Z,36.80
2017-11-08T13:42:53.417Z,39.23
2017-11-08T13:45:22.955Z,38.77
2017-11-08T13:47:51.632Z,38.73
2017-11-08T13:50:21.416Z,40.47
2017-11-08T13:52:50.109Z,39.60
2017-11-08T13:55:18.793Z,41.03
2017-11-08T13:57:49.012Z,40.83
2017-11-08T14:00:20.674Z,39.77
2017-11-08T14:02:50.019Z,40.10
2017-11-08T14:05:18.721Z,42.07
2017-11-08T14:07:47.901Z,40.03
2017-11-08T14:10:17.612Z,38.93
2017-11-08T14:12:47.761Z,39.53
2017-11-08T14:15:18.877Z,41.43
2017-11-08T14:17:48.413Z,41.20
2017-11-08T14:20:17.805Z,42.33
2017-11-08T14:22:47.556Z,40.33
2017-11-08T14:25:16.741Z,40.73
2017-11-08T14:27:47.220Z,43.90
2017-11-08T14:30:16.425Z,42.37
2017-11-08T14:32:46.582Z,43.50
2017-11-08T14:35:16.664Z,43.93
2017-11-08T14:37:46.033Z,44.97
2017-11-08T14:40:16.829Z,42.87
2017-11-08T14:42:55.189Z,46.90
2017-11-08T14:45:24.906Z,44.70
2017-11-08T14:47:54.319Z,45.77
2017-11-08T14:50:24.561Z,46.23
2017-11-08T14:52:57.927Z,43.57
2017-11-08T14:55:28.016Z,43.70
2017-11-08T14:57:57.424Z,46.23
2017-11-08T15:00:26.818Z,45.07
2017-11-08T15:02:56.307Z,45.43
2017-11-08T15:05:26.899Z,43.17
2017-11-08T15:07:56.297Z,45.53
2017-11-08T15:10:25.713Z,48.60
2017-11-08T15:12:56.304Z,46.23
2017-11-08T15:15:25.705Z,47.33
2017-11-08T15:17:57.265Z,47.00
2017-11-08T15:20:29.223Z,46.27
2017-11-08T15:22:59.264Z,45.57
2017-11-08T15:25:29.726Z,47.50
2017-11-08T15:28:00.751Z,48.07
2017-11-08T15:30:30.146Z,46.23
2017-11-08T15:33:00.715Z,47.20
2017-11-08T15:35:30.868Z,48.03
2017-11-08T15:38:00.574Z,47.60
2017-11-08T15:40:29.773Z,44.83
2017-11-08T15:42:59.183Z,48.77
2017-11-08T15:45:28.230Z,48.20
2017-11-08T15:47:57.616Z,47.30
2017-11-08T15:50:27.017Z,48.37
2017-11-08T15:52:56.821Z,48.13
2017-11-08T15:55:26.199Z,49.67
2017-11-08T15:57:55.604Z,46.60
2017-11-08T16:00:25.393Z,49.00
2017-11-08T16:02:54.599Z,47.70
2017-11-08T16:05:23.967Z,47.40
2017-11-08T16:07:54.379Z,48.83
2017-11-08T16:10:23.749Z,48.63
2017-11-08T16:12:56.133Z,49.20
2017-11-08T16:15:25.578Z,46.97
2017-11-08T16:17:55.230Z,46.60
2017-11-08T16:20:26.378Z,50.53
2017-11-08T16:22:56.514Z,47.37
2017-11-08T16:25:26.526Z,47.13
2017-11-08T16:27:55.894Z,47.17
2017-11-08T16:30:26.627Z,46.93
2017-11-08T16:32:57.527Z,47.27
2017-11-08T16:35:27.301Z,44.83
2017-11-08T16:37:56.508Z,47.83
2017-11-08T16:40:25.899Z,46.23
2017-11-08T16:42:57.302Z,46.67
2017-11-08T16:45:26.716Z,45.17
2017-11-08T16:47:57.337Z,45.10
2017-11-08T16:50:26.732Z,44.37
2017-11-08T16:52:55.953Z,44.93
2017-11-08T16:55:25.942Z,42.30
2017-11-08T16:57:57.550Z,44.37
2017-11-08T17:00:27.111Z,41.63
2017-11-08T17:02:57.442Z,40.57
2017-11-08T17:05:27.618Z,41.70
2017-11-08T17:07:56.998Z,38.87
2017-11-08T17:10:26.416Z,40.23
2017-11-08T17:12:58.388Z,40.13
2017-11-08T17:15:27.794Z,38.83
2017-11-08T17:17:57.303Z,40.23
2017-11-08T17:20:27.756Z,37.93
2017-11-08T17:22:57.140Z,39.20
2017-11-08T17:25:29.397Z,38.97
2017-11-08T17:27:58.821Z,39.10
2017-11-08T17:30:28.396Z,40.80
2017-11-08T17:32:59.189Z,37.80
2017-11-08T17:35:28.566Z,42.00
2017-11-08T17:37:57.954Z,38.63
2017-11-08T17:40:28.126Z,39.57
2017-11-08T17:42:57.543Z,44.07
2017-11-08T17:45:26.933Z,40.37
2017-11-08T17:47:56.576Z,40.03
2017-11-08T17:50:26.029Z,38.77
2017-11-08T17:52:58.017Z,43.07
2017-11-08T17:55:27.438Z,43.17
2017-11-08T17:57:56.825Z,42.67
2017-11-08T18:00:26.576Z,43.67
2017-11-08T18:02:55.957Z,41.23
2017-11-08T18:05:26.266Z,39.87
2017-11-08T18:07:55.697Z,41.27
2017-11-08T18:10:25.125Z,39.10
2017-11-08T18:12:54.642Z,39.53
2017-11-08T18:15:24.033Z,38.43
2017-11-08T18:17:53.397Z,39.13
2017-11-08T18:20:23.552Z,38.37
2017-11-08T18:22:53.121Z,41.30
2017-11-08T18:25:22.549Z,40.53
2017-11-08T18:27:52.392Z,39.30
2017-11-08T18:30:22.558Z,38.23
2017-11-08T18:32:53.032Z,37.27
2017-11-08T18:35:22.428Z,37.27
2017-11-08T18:37:52.103Z,38.70
2017-11-08T18:40:21.831Z,40.90
2017-11-08T18:42:51.248Z,39.30
2017-11-08T18:45:20.617Z,39.10
2017-11-08T18:47:50.292Z,41.73
2017-11-08T18:50:19.670Z,39.70
2017-11-08T18:52:49.067Z,38.80
2017-11-08T18:55:18.597Z,40.63
2017-11-08T18:57:47.991Z,39.30
2017-11-08T19:00:18.559Z,42.73
2017-11-08T19:02:47.766Z,39.43
2017-11-08T19:05:17.397Z,39.10
2017-11-08T19:07:48.282Z,38.10
2017-11-08T19:10:17.659Z,38.40
2017-11-08T19:12:48.680Z,37.10
2017-11-08T19:15:18.078Z,38.87
2017-11-08T19:17:47.274Z,39.47
2017-11-08T19:20:16.998Z,41.60
2017-11-08T19:22:47.378Z,40.87
2017-11-08T19:25:16.799Z,42.07
2017-11-08T19:27:46.798Z,43.53
2017-11-08T19:30:16.204Z,39.57
2017-11-08T19:32:46.769Z,42.37
2017-11-08T19:35:16.153Z,43.33
2017-11-08T19:37:46.616Z,41.80
2017-11-08T19:40:16.769Z,41.03
2017-11-08T19:42:47.046Z,43.57
2017-11-08T19:45:16.447Z,42.00
2017-11-08T19:47:46.738Z,42.53
2017-11-08T19:50:16.708Z,45.50
2017-11-08T19:52:46.087Z,44.20
2017-11-08T19:55:15.481Z,44.07
2017-11-08T19:57:45.982Z,40.10
2017-11-08T20:00:15.380Z,42.27
2017-11-08T20:02:44.756Z,43.57
2017-11-08T20:05:14.449Z,42.37
2017-11-08T20:07:43.659Z,44.53
2017-11-08T20:10:12.864Z,43.20
2017-11-08T20:12:43.616Z,41.60
2017-11-08T20:15:13.018Z,44.60
2017-11-08T20:17:42.435Z,43.77
2017-11-08T20:20:12.147Z,46.50
2017-11-08T20:22:41.541Z,43.93
2017-11-08T20:25:10.930Z,44.40
2017-11-08T20:27:40.634Z,45.00
2017-11-08T20:30:10.013Z,44.60
2017-11-08T20:32:39.404Z,44.93
2017-11-08T20:35:09.429Z,44.60
2017-11-08T20:37:38.818Z,46.17
2017-11-08T20:40:09.628Z,44.30
2017-11-08T20:42:39.020Z,46.07
2017-11-08T20:45:09.605Z,46.60
2017-11-08T20:47:38.987Z,46.97
2017-11-08T20:50:09.482Z,47.33
2017-11-08T20:52:38.873Z,47.40
2017-11-08T20:55:09.780Z,48.13
2017-11-08T20:57:39.007Z,49.00
2017-11-08T21:00:08.028Z,48.70
2017-11-08T21:02:38.038Z,50.77
2017-11-08T21:05:07.410Z,51.13
2017-11-08T21:07:36.799Z,48.37
2017-11-08T21:10:06.334Z,49.63
2017-11-08T21:12:35.719Z,49.80
2017-11-08T21:15:06.217Z,48.23
2017-11-08T21:17:35.644Z,53.03
2017-11-08T21:20:04.677Z,47.87
2017-11-08T21:22:35.541Z,50.97
2017-11-08T21:25:05.304Z,48.37
2017-11-08T21:27:34.710Z,48.20
2017-11-08T21:30:04.435Z,47.20
2017-11-08T21:32:33.638Z,50.07
2017-11-08T21:35:03.281Z,49.23
2017-11-08T21:37:33.038Z,48.93
2017-11-08T21:40:02.450Z,50.17
2017-11-08T21:42:31.924Z,49.37
2017-11-08T21:45:02.255Z,46.93
2017-11-08T21:47:31.663Z,49.07
2017-11-08T21:50:01.050Z,49.50
2017-11-08T21:52:31.530Z,48.27
2017-11-08T21:55:00.931Z,48.50
2017-11-08T21:57:31.410Z,47.10
2017-11-08T22:00:01.874Z,61.87
2017-11-08T22:02:31.720Z,50.00
2017-11-08T22:05:02.205Z,44.30
2017-11-08T22:07:33.024Z,47.17
2017-11-08T22:10:02.606Z,48.93
2017-11-08T22:12:32.038Z,48.33
2017-11-08T22:15:01.817Z,48.40
2017-11-08T22:17:31.204Z,49.40
2017-11-08T22:20:01.414Z,47.93
2017-11-08T22:22:30.820Z,48.73
2017-11-08T22:25:00.226Z,50.43
2017-11-08T22:27:30.997Z,47.80
2017-11-08T22:30:00.384Z,45.87
2017-11-08T22:32:29.471Z,46.03
2017-11-08T22:34:59.514Z,47.10
2017-11-08T22:37:28.910Z,46.20
2017-11-08T22:39:59.417Z,47.37
2017-11-08T22:42:28.819Z,47.80
2017-11-08T22:44:57.526Z,45.93
2017-11-08T22:47:27.236Z,47.10
2017-11-08T22:49:57.429Z,48.93
2017-11-08T22:52:28.184Z,46.63
2017-11-08T22:54:57.569Z,44.43
2017-11-08T22:57:26.966Z,47.27
2017-11-08T22:59:56.993Z,50.57
2017-11-08T23:02:26.410Z,47.67
2017-11-08T23:04:55.793Z,49.77
2017-11-08T23:07:25.657Z,48.83
2017-11-08T23:09:59.459Z,47.87
2017-11-08T23:12:33.323Z,50.13
2017-11-08T23:15:02.881Z,47.60
2017-11-08T23:17:32.282Z,48.93
2017-11-08T23:20:02.448Z,48.83
2017-11-08T23:22:31.848Z,47.43
2017-11-08T23:25:01.338Z,47.53
2017-11-08T23:27:31.066Z,50.77
2017-11-08T23:30:00.276Z,46.20
2017-11-08T23:32:29.769Z,48.43
2017-11-08T23:34:59.551Z,47.33
2017-11-08T23:37:28.949Z,47.87
2017-11-08T23:39:58.538Z,49.27
2017-11-08T23:42:28.328Z,46.63
2017-11-08T23:44:57.722Z,48.93
2017-11-08T23:47:27.151Z,47.03
2017-11-08T23:49:58.676Z,47.27
2017-11-08T23:52:28.095Z,46.63
2017-11-08T23:54:57.477Z,45.57
2017-11-08T23:57:27.275Z,48.70
